createdAt,value
2022-10-09T00:01:09.740Z,1.83
2022-10-09T00:03:38.246Z,1.70
2022-10-09T00:06:06.193Z,1.50
2022-10-09T00:08:34.776Z,1.73
2022-10-09T00:11:05.997Z,1.70
2022-10-09T00:13:33.434Z,1.83
2022-10-09T00:16:03.779Z,2.20
2022-10-09T00:18:31.258Z,1.83
2022-10-09T00:20:58.836Z,1.87
2022-10-09T00:23:26.557Z,1.97
2022-10-09T00:25:56.262Z,2.07
2022-10-09T00:28:24.476Z,1.67
2022-10-09T00:30:52.376Z,2.07
2022-10-09T00:33:20.008Z,1.50
2022-10-09T00:35:47.318Z,1.90
2022-10-09T00:38:15.090Z,3.10
2022-10-09T00:40:42.710Z,1.90
2022-10-09T00:43:19.712Z,1.50
2022-10-09T00:45:55.850Z,1.90
2022-10-09T00:48:23.558Z,1.80
2022-10-09T00:50:53.801Z,1.40
2022-10-09T00:53:22.411Z,1.80
2022-10-09T00:55:50.176Z,1.50
2022-10-09T00:58:17.627Z,2.30
2022-10-09T01:00:45.183Z,2.07
2022-10-09T01:03:12.880Z,2.00
2022-10-09T01:05:52.310Z,2.30
2022-10-09T01:08:38.699Z,1.90
2022-10-09T01:11:06.150Z,2.47
2022-10-09T01:13:53.708Z,1.90
2022-10-09T01:16:29.123Z,1.97
2022-10-09T01:19:06.978Z,1.87
2022-10-09T01:22:03.424Z,1.57
2022-10-09T01:24:38.580Z,1.70
2022-10-09T01:27:08.497Z,1.80
2022-10-09T01:29:38.107Z,1.60
2022-10-09T01:32:06.462Z,1.70
2022-10-09T01:34:34.198Z,1.77
2022-10-09T01:37:01.783Z,1.30
2022-10-09T01:39:30.544Z,1.60
2022-10-09T01:41:58.133Z,1.40
2022-10-09T01:44:27.047Z,1.70
2022-10-09T01:46:54.467Z,1.73
2022-10-09T01:49:30.481Z,1.40
2022-10-09T01:52:16.003Z,1.50
2022-10-09T01:55:01.731Z,1.63
2022-10-09T01:57:33.782Z,1.60
2022-10-09T02:00:03.585Z,1.50
2022-10-09T02:02:31.148Z,1.70
2022-10-09T02:04:59.076Z,1.20
2022-10-09T02:07:26.929Z,1.60
2022-10-09T02:09:54.933Z,1.50
2022-10-09T02:12:23.447Z,1.53
2022-10-09T02:14:50.831Z,1.83
2022-10-09T02:17:19.747Z,1.53
2022-10-09T02:19:51.879Z,1.60
2022-10-09T02:22:20.648Z,1.50
2022-10-09T02:24:48.348Z,1.30
2022-10-09T02:27:16.438Z,1.73
2022-10-09T02:29:44.779Z,1.40
2022-10-09T02:32:12.581Z,1.70
2022-10-09T02:34:39.951Z,1.43
2022-10-09T02:37:07.919Z,1.60
2022-10-09T02:39:35.524Z,1.77
2022-10-09T02:42:03.266Z,1.50
2022-10-09T02:44:30.922Z,1.73
2022-10-09T02:46:58.231Z,1.40
2022-10-09T02:49:25.846Z,1.73
2022-10-09T02:51:53.231Z,1.70
2022-10-09T02:54:20.539Z,1.70
2022-10-09T02:56:47.920Z,1.70
2022-10-09T02:59:15.315Z,2.03
2022-10-09T03:01:42.891Z,1.60
2022-10-09T03:04:10.529Z,1.70
2022-10-09T03:06:37.996Z,2.53
2022-10-09T03:09:08.096Z,1.50
2022-10-09T03:11:35.394Z,1.60
2022-10-09T03:14:02.759Z,1.53
2022-10-09T03:16:30.319Z,1.67
2022-10-09T03:18:58.682Z,2.10
2022-10-09T03:21:27.287Z,2.50
2022-10-09T03:23:54.867Z,2.47
2022-10-09T03:26:23.807Z,2.30
2022-10-09T03:28:52.047Z,2.27
2022-10-09T03:31:39.789Z,2.27
2022-10-09T03:34:07.644Z,2.23
2022-10-09T03:36:35.093Z,2.03
2022-10-09T03:39:02.413Z,2.03
2022-10-09T03:41:29.946Z,1.73
2022-10-09T03:43:57.289Z,1.40
2022-10-09T03:46:24.790Z,1.60
2022-10-09T03:48:52.222Z,1.37
2022-10-09T03:51:19.613Z,2.00
2022-10-09T03:53:46.901Z,1.53
2022-10-09T03:56:14.283Z,1.93
2022-10-09T03:58:41.717Z,1.20
2022-10-09T04:01:09.148Z,1.30
2022-10-09T04:03:36.529Z,1.50
2022-10-09T04:06:04.092Z,1.50
2022-10-09T04:08:31.510Z,1.80
2022-10-09T04:11:00.125Z,1.50
2022-10-09T04:13:27.756Z,1.43
2022-10-09T04:15:55.850Z,2.00
2022-10-09T04:18:23.666Z,1.67
2022-10-09T04:20:54.933Z,1.70
2022-10-09T04:23:26.389Z,1.70
2022-10-09T04:25:54.963Z,1.70
2022-10-09T04:28:23.754Z,1.30
2022-10-09T04:30:51.293Z,1.67
2022-10-09T04:33:18.726Z,1.70
2022-10-09T04:35:46.765Z,1.63
2022-10-09T04:38:14.132Z,1.90
2022-10-09T04:40:41.808Z,1.40
2022-10-09T04:43:09.397Z,2.10
2022-10-09T04:45:40.591Z,2.10
2022-10-09T04:48:07.933Z,1.40
2022-10-09T04:50:35.281Z,1.67
2022-10-09T04:53:02.707Z,1.40
2022-10-09T04:55:30.167Z,1.20
2022-10-09T04:57:57.787Z,1.27
2022-10-09T05:00:25.159Z,1.30
2022-10-09T05:02:52.618Z,1.03
2022-10-09T05:05:20.044Z,1.30
2022-10-09T05:07:47.447Z,1.40
2022-10-09T05:10:14.858Z,1.40
2022-10-09T05:12:42.296Z,1.50
2022-10-09T05:15:09.909Z,1.60
2022-10-09T05:17:37.470Z,1.60
2022-10-09T05:20:04.992Z,1.60
2022-10-09T05:22:32.429Z,1.30
2022-10-09T05:24:59.809Z,1.30
2022-10-09T05:27:28.430Z,0.90
2022-10-09T05:29:55.935Z,1.30
2022-10-09T05:32:23.316Z,1.00
2022-10-09T05:34:50.729Z,1.10
2022-10-09T05:37:18.185Z,1.23
2022-10-09T05:39:45.555Z,1.20
2022-10-09T05:42:13.038Z,1.60
2022-10-09T05:44:40.557Z,1.97
2022-10-09T05:47:08.030Z,1.40
2022-10-09T05:49:35.450Z,1.43
2022-10-09T05:52:02.773Z,1.40
2022-10-09T05:54:30.217Z,1.60
2022-10-09T05:56:57.649Z,1.60
2022-10-09T05:59:27.214Z,1.33
2022-10-09T06:01:55.009Z,2.30
2022-10-09T06:04:23.684Z,2.03
2022-10-09T06:06:51.230Z,1.70
2022-10-09T06:09:19.670Z,1.70
2022-10-09T06:11:47.073Z,1.13
2022-10-09T06:14:14.714Z,1.23
2022-10-09T06:16:43.185Z,1.20
2022-10-09T06:19:15.466Z,1.60
2022-10-09T06:21:43.501Z,1.77
2022-10-09T06:24:29.598Z,1.93
2022-10-09T06:26:58.093Z,2.70
2022-10-09T06:29:25.682Z,3.10
2022-10-09T06:31:53.200Z,2.50
2022-10-09T06:34:20.622Z,2.70
2022-10-09T06:36:48.045Z,2.53
2022-10-09T06:39:15.802Z,2.70
2022-10-09T06:41:43.305Z,3.40
2022-10-09T06:44:16.804Z,3.10
2022-10-09T06:46:45.280Z,2.83
2022-10-09T06:49:13.018Z,3.50
2022-10-09T06:51:40.751Z,2.83
2022-10-09T06:54:11.727Z,3.63
2022-10-09T06:56:39.203Z,3.33
2022-10-09T06:59:07.749Z,3.30
2022-10-09T07:01:35.347Z,2.73
2022-10-09T07:04:09.793Z,3.20
2022-10-09T07:06:42.081Z,2.93
2022-10-09T07:09:11.263Z,2.80
2022-10-09T07:11:46.273Z,2.97
2022-10-09T07:14:16.106Z,3.03
2022-10-09T07:16:44.951Z,2.40
2022-10-09T07:19:13.159Z,2.53
2022-10-09T07:21:41.904Z,2.90
2022-10-09T07:24:09.352Z,2.60
2022-10-09T07:26:38.017Z,2.27
2022-10-09T07:29:06.504Z,3.00
2022-10-09T07:31:33.904Z,2.60
2022-10-09T07:34:01.564Z,3.07
2022-10-09T07:36:28.919Z,3.00
2022-10-09T07:38:58.177Z,2.87
2022-10-09T07:41:26.727Z,2.60
2022-10-09T07:43:54.147Z,4.00
2022-10-09T07:46:22.997Z,2.90
2022-10-09T07:48:51.332Z,2.83
2022-10-09T07:51:20.973Z,2.50
2022-10-09T07:53:48.718Z,2.70
2022-10-09T07:56:20.401Z,2.50
2022-10-09T07:58:58.104Z,2.37
2022-10-09T08:01:27.637Z,2.67
2022-10-09T08:03:55.438Z,2.67
2022-10-09T08:06:23.211Z,2.60
2022-10-09T08:08:54.599Z,2.50
2022-10-09T08:11:22.633Z,3.10
2022-10-09T08:13:50.385Z,2.80
2022-10-09T08:16:18.681Z,2.97
2022-10-09T08:18:46.463Z,5.37
2022-10-09T08:21:15.606Z,3.73
2022-10-09T08:23:42.971Z,2.60
2022-10-09T08:26:17.525Z,2.30
2022-10-09T08:28:45.377Z,2.37
2022-10-09T08:31:17.215Z,2.60
2022-10-09T08:33:44.741Z,3.07
2022-10-09T08:36:15.357Z,3.10
2022-10-09T08:38:48.177Z,2.63
2022-10-09T08:41:34.025Z,4.27
2022-10-09T08:44:07.185Z,8.37
2022-10-09T08:46:40.999Z,9.53
2022-10-09T08:49:11.354Z,6.47
2022-10-09T08:51:39.584Z,5.50
2022-10-09T08:54:16.225Z,4.17
2022-10-09T08:56:43.626Z,3.43
2022-10-09T08:59:12.623Z,3.00
2022-10-09T09:01:43.002Z,3.00
2022-10-09T09:04:29.044Z,2.33
2022-10-09T09:07:16.691Z,2.50
2022-10-09T09:09:55.779Z,2.13
2022-10-09T09:12:28.395Z,2.77
2022-10-09T09:15:14.465Z,2.37
2022-10-09T09:17:52.227Z,2.40
2022-10-09T09:20:27.172Z,2.20
2022-10-09T09:22:56.342Z,2.90
2022-10-09T09:25:25.504Z,2.20
2022-10-09T09:27:54.438Z,2.00
2022-10-09T09:30:28.504Z,1.90
2022-10-09T09:32:55.944Z,2.80
2022-10-09T09:35:46.886Z,2.90
2022-10-09T09:38:14.865Z,2.50
2022-10-09T09:40:46.771Z,2.13
2022-10-09T09:43:17.472Z,2.03
2022-10-09T09:45:45.563Z,2.30
2022-10-09T09:48:27.713Z,1.93
2022-10-09T09:51:16.114Z,3.30
2022-10-09T09:53:44.404Z,1.88
2022-10-09T09:56:12.063Z,1.57
2022-10-09T09:58:40.847Z,1.60
2022-10-09T10:01:08.751Z,1.23
2022-10-09T10:03:36.915Z,1.13
2022-10-09T10:06:04.361Z,1.70
2022-10-09T10:08:32.833Z,1.60
2022-10-09T10:11:01.638Z,2.08
2022-10-09T10:13:38.294Z,1.63
2022-10-09T10:16:07.561Z,1.90
2022-10-09T10:18:42.648Z,2.08
2022-10-09T10:21:17.836Z,1.92
2022-10-09T10:23:46.658Z,1.37
2022-10-09T10:26:16.723Z,1.40
2022-10-09T10:28:57.681Z,1.50
2022-10-09T10:31:45.274Z,1.15
2022-10-09T10:34:17.795Z,1.25
2022-10-09T10:36:46.131Z,1.40
2022-10-09T10:39:17.997Z,1.10
2022-10-09T10:41:48.739Z,1.52
2022-10-09T10:44:22.801Z,1.58
2022-10-09T10:46:54.213Z,1.17
2022-10-09T10:49:22.870Z,1.38
2022-10-09T10:51:56.160Z,1.10
2022-10-09T10:54:32.503Z,1.10
2022-10-09T10:57:09.412Z,1.13
2022-10-09T10:59:39.987Z,1.00
2022-10-09T11:02:32.514Z,1.00
2022-10-09T11:05:05.869Z,0.90
2022-10-09T11:07:47.097Z,1.08
2022-10-09T11:10:14.421Z,1.58
2022-10-09T11:12:48.473Z,1.30
2022-10-09T11:15:19.498Z,1.00
2022-10-09T11:17:56.332Z,0.88
2022-10-09T11:20:35.495Z,0.82
2022-10-09T11:23:05.333Z,1.00
2022-10-09T11:25:47.593Z,0.65
2022-10-09T11:28:41.385Z,0.70
2022-10-09T11:31:31.767Z,0.98
2022-10-09T11:34:01.323Z,1.08
2022-10-09T11:36:33.992Z,0.85
2022-10-09T11:39:06.394Z,1.20
2022-10-09T11:41:36.025Z,0.90
2022-10-09T11:44:21.427Z,0.70
2022-10-09T11:46:50.229Z,1.10
2022-10-09T11:49:17.677Z,0.98
2022-10-09T11:52:17.438Z,0.90
2022-10-09T11:54:44.898Z,0.80
2022-10-09T11:57:15.351Z,0.90
2022-10-09T11:59:43.314Z,0.95
2022-10-09T12:02:16.609Z,0.60
2022-10-09T12:04:54.426Z,0.57
2022-10-09T12:10:24.782Z,0.45
2022-10-09T12:13:03.170Z,0.60
2022-10-09T12:15:53.564Z,0.50
2022-10-09T12:18:32.148Z,0.40
2022-10-09T12:21:01.176Z,0.50
2022-10-09T12:23:30.879Z,1.02
2022-10-09T12:25:58.875Z,0.70
2022-10-09T12:28:30.326Z,0.60
2022-10-09T12:31:00.548Z,0.60
2022-10-09T12:33:30.763Z,0.50
2022-10-09T12:36:00.847Z,0.50
2022-10-09T12:38:29.513Z,0.80
2022-10-09T12:40:59.160Z,0.50
2022-10-09T12:43:26.683Z,0.60
2022-10-09T12:45:54.884Z,0.77
2022-10-09T12:48:23.482Z,0.70
2022-10-09T12:50:51.144Z,0.40
2022-10-09T12:53:22.902Z,0.63
2022-10-09T12:55:51.652Z,1.15
2022-10-09T12:58:24.767Z,1.25
2022-10-09T13:00:54.169Z,1.40
2022-10-09T13:03:23.612Z,0.95
2022-10-09T13:05:51.198Z,1.17
2022-10-09T13:08:24.457Z,1.10
2022-10-09T13:10:52.587Z,1.05
2022-10-09T13:13:22.171Z,0.88
2022-10-09T13:16:00.022Z,0.93
2022-10-09T13:18:27.450Z,0.90
2022-10-09T13:21:05.984Z,1.25
2022-10-09T13:23:34.565Z,1.00
2022-10-09T13:26:03.778Z,0.60
2022-10-09T13:28:31.867Z,0.40
2022-10-09T13:31:06.980Z,0.30
2022-10-09T13:33:34.503Z,0.40
2022-10-09T13:36:01.879Z,0.30
2022-10-09T13:38:32.663Z,0.38
2022-10-09T13:41:02.135Z,0.63
2022-10-09T13:43:31.169Z,0.50
2022-10-09T13:45:58.913Z,0.50
2022-10-09T13:48:26.413Z,0.52
2022-10-09T13:50:53.789Z,0.50
2022-10-09T13:53:21.189Z,0.50
2022-10-09T13:55:48.610Z,0.50
2022-10-09T13:58:15.952Z,0.52
2022-10-09T14:00:45.409Z,0.82
2022-10-09T14:03:12.812Z,0.70
2022-10-09T14:05:41.052Z,0.52
2022-10-09T14:08:08.357Z,0.50
2022-10-09T14:10:35.950Z,0.50
2022-10-09T14:13:03.390Z,0.30
2022-10-09T14:15:30.992Z,0.55
2022-10-09T14:18:00.398Z,0.35
2022-10-09T14:20:29.169Z,0.65
2022-10-09T14:22:56.468Z,0.40
2022-10-09T14:25:23.877Z,0.60
2022-10-09T14:27:51.430Z,0.50
2022-10-09T14:30:19.038Z,0.40
2022-10-09T14:32:46.642Z,0.40
2022-10-09T14:35:17.099Z,0.50
2022-10-09T14:37:48.184Z,0.50
2022-10-09T14:40:15.523Z,0.88
2022-10-09T14:42:42.934Z,1.00
2022-10-09T14:45:10.672Z,2.00
2022-10-09T14:47:40.162Z,1.55
2022-10-09T14:50:07.941Z,1.50
2022-10-09T14:52:35.490Z,1.90
2022-10-09T14:55:02.933Z,1.00
2022-10-09T14:57:35.217Z,0.60
2022-10-09T15:00:03.550Z,0.47
2022-10-09T15:02:31.059Z,0.70
2022-10-09T15:04:58.517Z,0.70
2022-10-09T15:07:28.249Z,1.48
2022-10-09T15:09:57.069Z,0.90
2022-10-09T15:12:24.571Z,0.60
2022-10-09T15:14:51.955Z,0.60
2022-10-09T15:17:19.281Z,0.70
2022-10-09T15:19:46.704Z,1.85
2022-10-09T15:22:14.066Z,0.60
2022-10-09T15:24:41.564Z,0.47
2022-10-09T15:27:09.082Z,0.30
2022-10-09T15:29:36.442Z,0.98
2022-10-09T15:32:03.994Z,0.40
2022-10-09T15:34:31.445Z,0.30
2022-10-09T15:36:58.938Z,0.20
2022-10-09T15:39:26.305Z,0.25
2022-10-09T15:41:53.706Z,0.20
2022-10-09T15:44:21.603Z,0.40
2022-10-09T15:46:49.463Z,0.10
2022-10-09T15:49:16.818Z,0.50
2022-10-09T15:51:44.454Z,0.50
2022-10-09T15:54:12.261Z,1.08
2022-10-09T15:56:40.525Z,0.70
2022-10-09T15:59:08.553Z,0.60
2022-10-09T16:01:36.000Z,0.50
2022-10-09T16:04:03.361Z,1.20
2022-10-09T16:06:30.753Z,0.50
2022-10-09T16:08:58.724Z,0.50
2022-10-09T16:11:26.975Z,0.43
2022-10-09T16:13:55.141Z,0.43
2022-10-09T16:16:23.893Z,0.50
2022-10-09T16:18:52.056Z,0.63
2022-10-09T16:21:26.723Z,0.45
2022-10-09T16:23:58.510Z,0.43
2022-10-09T16:26:28.194Z,0.30
2022-10-09T16:28:55.944Z,0.45
2022-10-09T16:31:25.283Z,0.30
2022-10-09T16:33:52.928Z,0.40
2022-10-09T16:36:20.660Z,0.30
2022-10-09T16:38:48.474Z,0.40
2022-10-09T16:41:18.104Z,0.65
2022-10-09T16:43:46.356Z,0.30
2022-10-09T16:46:19.445Z,0.20
2022-10-09T16:48:47.544Z,0.20
2022-10-09T16:51:16.414Z,0.30
2022-10-09T16:53:43.818Z,0.93
2022-10-09T16:56:15.797Z,0.55
2022-10-09T16:58:43.881Z,0.70
2022-10-09T17:01:11.816Z,0.60
2022-10-09T17:03:44.741Z,0.70
2022-10-09T17:06:13.814Z,0.50
2022-10-09T17:08:41.302Z,0.50
2022-10-09T17:11:12.794Z,0.60
2022-10-09T17:13:40.573Z,0.40
2022-10-09T17:16:09.073Z,0.30
2022-10-09T17:18:37.154Z,0.30
2022-10-09T17:21:05.473Z,0.28
2022-10-09T17:23:33.258Z,0.30
2022-10-09T17:26:05.182Z,0.22
2022-10-09T17:28:34.619Z,0.50
2022-10-09T17:31:05.872Z,0.80
2022-10-09T17:33:33.897Z,1.13
2022-10-09T17:36:03.210Z,1.30
2022-10-09T17:38:30.964Z,1.20
2022-10-09T17:40:58.372Z,1.60
2022-10-09T17:43:25.709Z,1.48
2022-10-09T17:45:53.154Z,1.50
2022-10-09T17:48:20.565Z,2.10
2022-10-09T17:50:51.677Z,1.30
2022-10-09T17:53:19.082Z,1.17
2022-10-09T17:55:50.338Z,0.70
2022-10-09T17:58:18.040Z,0.60
2022-10-09T18:00:46.533Z,1.10
2022-10-09T18:03:14.183Z,1.40
2022-10-09T18:05:45.781Z,1.00
2022-10-09T18:08:14.038Z,1.00
2022-10-09T18:10:41.405Z,1.10
2022-10-09T18:13:09.201Z,1.00
2022-10-09T18:15:46.282Z,1.00
2022-10-09T18:18:13.747Z,1.23
2022-10-09T18:20:41.476Z,0.63
2022-10-09T18:23:09.389Z,0.80
2022-10-09T18:25:41.458Z,0.70
2022-10-09T18:28:09.004Z,0.60
2022-10-09T18:30:41.024Z,0.90
2022-10-09T18:33:08.506Z,0.50
2022-10-09T18:35:36.852Z,0.80
2022-10-09T18:38:04.619Z,0.77
2022-10-09T18:40:31.987Z,0.70
2022-10-09T18:42:59.488Z,1.00
2022-10-09T18:45:26.941Z,0.73
2022-10-09T18:47:54.486Z,0.80
2022-10-09T18:50:22.285Z,0.67
2022-10-09T18:52:49.985Z,0.80
2022-10-09T18:55:18.950Z,0.70
2022-10-09T18:57:46.937Z,0.70
2022-10-09T19:00:15.258Z,0.63
2022-10-09T19:02:42.913Z,0.63
2022-10-09T19:05:10.463Z,0.83
2022-10-09T19:07:38.025Z,0.60
2022-10-09T19:10:06.963Z,0.50
2022-10-09T19:12:34.422Z,0.70
2022-10-09T19:15:01.818Z,0.90
2022-10-09T19:17:29.244Z,0.60
2022-10-09T19:19:56.631Z,0.50
2022-10-09T19:22:24.252Z,0.30
2022-10-09T19:24:51.913Z,0.30
2022-10-09T19:27:21.589Z,0.70
2022-10-09T19:29:51.013Z,0.93
2022-10-09T19:32:22.964Z,0.70
2022-10-09T19:34:51.151Z,0.80
2022-10-09T19:37:18.734Z,0.70
2022-10-09T19:39:48.722Z,1.33
2022-10-09T19:42:16.846Z,0.90
2022-10-09T19:44:45.073Z,0.60
2022-10-09T19:47:12.654Z,0.90
2022-10-09T19:49:40.314Z,0.70
2022-10-09T19:52:07.833Z,0.80
2022-10-09T19:54:35.613Z,0.77
2022-10-09T19:57:03.094Z,2.47
2022-10-09T19:59:31.394Z,2.00
2022-10-09T20:01:58.774Z,1.77
2022-10-09T20:04:26.134Z,1.77
2022-10-09T20:06:53.493Z,1.60
2022-10-09T20:09:21.076Z,2.53
2022-10-09T20:11:51.302Z,1.73
2022-10-09T20:14:18.743Z,0.83
2022-10-09T20:16:46.162Z,0.60
2022-10-09T20:19:14.041Z,0.77
2022-10-09T20:21:41.375Z,0.90
2022-10-09T20:24:08.742Z,0.93
2022-10-09T20:26:40.902Z,1.13
2022-10-09T20:29:10.510Z,0.60
2022-10-09T20:31:39.234Z,0.60
2022-10-09T20:34:06.563Z,0.70
2022-10-09T20:36:35.553Z,0.90
2022-10-09T20:39:04.902Z,0.73
2022-10-09T20:41:33.083Z,1.57
2022-10-09T20:44:01.186Z,0.53
2022-10-09T20:46:29.543Z,0.20
2022-10-09T20:48:57.135Z,0.43
2022-10-09T20:51:24.962Z,0.40
2022-10-09T20:53:56.222Z,0.33
2022-10-09T20:56:24.969Z,0.60
2022-10-09T20:58:52.485Z,0.40
2022-10-09T21:01:28.429Z,0.30
2022-10-09T21:03:56.870Z,0.50
2022-10-09T21:06:24.494Z,0.50
2022-10-09T21:08:52.021Z,0.40
2022-10-09T21:11:19.981Z,0.60
2022-10-09T21:13:47.662Z,0.47
2022-10-09T21:16:16.238Z,0.63
2022-10-09T21:18:43.650Z,0.60
2022-10-09T21:21:12.218Z,0.80
2022-10-09T21:23:39.740Z,0.63
2022-10-09T21:26:11.244Z,0.50
2022-10-09T21:28:38.678Z,0.53
2022-10-09T21:31:10.435Z,0.40
2022-10-09T21:33:38.323Z,0.50
2022-10-09T21:36:12.588Z,0.50
2022-10-09T21:38:40.032Z,0.50
2022-10-09T21:41:07.350Z,0.70
2022-10-09T21:43:34.767Z,0.50
2022-10-09T21:46:02.153Z,0.40
2022-10-09T21:48:29.513Z,0.40
2022-10-09T21:50:57.472Z,0.33
2022-10-09T21:53:24.975Z,0.60
2022-10-09T21:55:55.261Z,0.40
2022-10-09T21:58:22.682Z,0.50
2022-10-09T22:01:00.552Z,0.47
2022-10-09T22:03:29.234Z,0.63
2022-10-09T22:05:56.632Z,0.70
2022-10-09T22:08:24.014Z,0.50
2022-10-09T22:10:51.692Z,0.60
2022-10-09T22:13:20.372Z,1.07
2022-10-09T22:15:51.099Z,0.67
2022-10-09T22:18:19.052Z,0.40
2022-10-09T22:20:49.032Z,0.33
2022-10-09T22:23:17.233Z,0.30
2022-10-09T22:25:44.578Z,0.40
2022-10-09T22:28:12.042Z,0.40
2022-10-09T22:30:39.460Z,0.50
2022-10-09T22:33:06.833Z,0.40
2022-10-09T22:35:34.223Z,0.40
2022-10-09T22:38:01.623Z,0.60
2022-10-09T22:40:28.975Z,0.50
2022-10-09T22:42:56.310Z,0.40
2022-10-09T22:45:23.898Z,0.40
2022-10-09T22:47:54.256Z,0.60
2022-10-09T22:50:21.630Z,0.40
2022-10-09T22:52:49.239Z,0.30
2022-10-09T22:55:16.864Z,0.37
2022-10-09T22:57:44.221Z,0.50
2022-10-09T23:00:12.116Z,0.40
2022-10-09T23:02:39.458Z,0.40
2022-10-09T23:05:06.972Z,0.50
2022-10-09T23:07:34.264Z,0.40
2022-10-09T23:10:01.600Z,0.50
2022-10-09T23:12:29.043Z,0.30
2022-10-09T23:14:56.394Z,0.40
2022-10-09T23:17:23.732Z,0.40
2022-10-09T23:19:53.565Z,0.50
2022-10-09T23:22:20.942Z,0.40
2022-10-09T23:24:48.316Z,0.40
2022-10-09T23:27:15.632Z,0.60
2022-10-09T23:29:43.012Z,0.40
2022-10-09T23:32:10.357Z,0.60
2022-10-09T23:34:37.702Z,0.50
2022-10-09T23:37:05.075Z,0.30
2022-10-09T23:39:32.424Z,0.73
2022-10-09T23:41:59.801Z,0.27
2022-10-09T23:44:27.129Z,0.50
2022-10-09T23:46:54.428Z,0.40
2022-10-09T23:49:21.814Z,0.60
2022-10-09T23:51:49.220Z,0.47
2022-10-09T23:54:16.490Z,0.30
2022-10-09T23:56:44.083Z,0.60
2022-10-09T23:59:11.996Z,0.40
